sensor_id;sensor_type;location;lat;lon;timestamp;temperature;humidity
52203;DHT22;38173;52.850;6.970;2022-11-27T00:01:43;5.50;99.90
52203;DHT22;38173;52.850;6.970;2022-11-27T00:04:09;5.50;99.90
52203;DHT22;38173;52.850;6.970;2022-11-27T00:06:36;5.50;99.90
52203;DHT22;38173;52.850;6.970;2022-11-27T00:09:03;5.50;99.90
52203;DHT22;38173;52.850;6.970;2022-11-27T00:11:30;5.50;99.90
52203;DHT22;38173;52.850;6.970;2022-11-27T00:13:55;5.40;99.90
52203;DHT22;38173;52.850;6.970;2022-11-27T00:16:21;5.40;99.90
52203;DHT22;38173;52.850;6.970;2022-11-27T00:18:47;5.40;99.90
52203;DHT22;38173;52.850;6.970;2022-11-27T00:21:20;5.40;99.90
52203;DHT22;38173;52.850;6.970;2022-11-27T00:23:47;5.30;99.90
52203;DHT22;38173;52.850;6.970;2022-11-27T00:26:13;5.30;99.90
52203;DHT22;38173;52.850;6.970;2022-11-27T00:28:39;5.30;99.90
52203;DHT22;38173;52.850;6.970;2022-11-27T00:31:13;5.30;99.90
52203;DHT22;38173;52.850;6.970;2022-11-27T00:33:39;5.30;99.90
52203;DHT22;38173;52.850;6.970;2022-11-27T00:36:05;5.20;99.90
52203;DHT22;38173;52.850;6.970;2022-11-27T00:38:31;5.30;99.90
52203;DHT22;38173;52.850;6.970;2022-11-27T00:40:58;5.20;99.90
52203;DHT22;38173;52.850;6.970;2022-11-27T00:43:29;5.20;99.90
52203;DHT22;38173;52.850;6.970;2022-11-27T00:45:54;5.20;99.90
52203;DHT22;38173;52.850;6.970;2022-11-27T00:48:21;5.10;99.90
52203;DHT22;38173;52.850;6.970;2022-11-27T00:50:46;5.10;99.90
52203;DHT22;38173;52.850;6.970;2022-11-27T00:53:12;5.10;99.90
52203;DHT22;38173;52.850;6.970;2022-11-27T00:55:41;5.10;99.90
52203;DHT22;38173;52.850;6.970;2022-11-27T00:58:06;5.10;99.90
52203;DHT22;38173;52.850;6.970;2022-11-27T01:00:32;5.00;99.90
52203;DHT22;38173;52.850;6.970;2022-11-27T01:02:58;5.00;99.90
52203;DHT22;38173;52.850;6.970;2022-11-27T01:05:23;5.00;99.90
52203;DHT22;38173;52.850;6.970;2022-11-27T01:07:49;5.00;99.90
52203;DHT22;38173;52.850;6.970;2022-11-27T01:10:15;5.00;99.90
52203;DHT22;38173;52.850;6.970;2022-11-27T01:12:41;5.00;99.90
52203;DHT22;38173;52.850;6.970;2022-11-27T01:15:06;4.90;99.90
52203;DHT22;38173;52.850;6.970;2022-11-27T01:17:32;4.90;99.90
52203;DHT22;38173;52.850;6.970;2022-11-27T01:19:58;4.90;99.90
52203;DHT22;38173;52.850;6.970;2022-11-27T01:22:24;4.80;99.90
52203;DHT22;38173;52.850;6.970;2022-11-27T01:24:49;4.80;99.90
52203;DHT22;38173;52.850;6.970;2022-11-27T01:27:15;4.80;99.90
52203;DHT22;38173;52.850;6.970;2022-11-27T01:29:40;4.80;99.90
52203;DHT22;38173;52.850;6.970;2022-11-27T01:32:06;4.70;99.90
52203;DHT22;38173;52.850;6.970;2022-11-27T01:34:31;4.70;99.90
52203;DHT22;38173;52.850;6.970;2022-11-27T01:36:57;4.70;99.90
52203;DHT22;38173;52.850;6.970;2022-11-27T01:39:22;4.70;99.90
52203;DHT22;38173;52.850;6.970;2022-11-27T01:41:49;4.60;99.90
52203;DHT22;38173;52.850;6.970;2022-11-27T01:49:43;4.60;99.90
52203;DHT22;38173;52.850;6.970;2022-11-27T01:52:13;4.60;99.90
52203;DHT22;38173;52.850;6.970;2022-11-27T01:57:24;4.50;99.90
52203;DHT22;38173;52.850;6.970;2022-11-27T01:59:51;4.50;99.90
52203;DHT22;38173;52.850;6.970;2022-11-27T02:02:18;4.50;99.90
52203;DHT22;38173;52.850;6.970;2022-11-27T02:04:43;4.40;99.90
52203;DHT22;38173;52.850;6.970;2022-11-27T02:07:09;4.40;99.90
52203;DHT22;38173;52.850;6.970;2022-11-27T02:09:34;4.40;99.90
52203;DHT22;38173;52.850;6.970;2022-11-27T02:30:18;4.30;99.90
52203;DHT22;38173;52.850;6.970;2022-11-27T02:35:22;4.30;99.90
52203;DHT22;38173;52.850;6.970;2022-11-27T02:38:05;4.30;99.90
52203;DHT22;38173;52.850;6.970;2022-11-27T02:40:37;4.30;99.90
52203;DHT22;38173;52.850;6.970;2022-11-27T02:43:07;4.30;99.90
52203;DHT22;38173;52.850;6.970;2022-11-27T02:45:38;4.20;99.90
52203;DHT22;38173;52.850;6.970;2022-11-27T02:48:05;4.20;99.90
52203;DHT22;38173;52.850;6.970;2022-11-27T02:50:32;4.20;99.90
52203;DHT22;38173;52.850;6.970;2022-11-27T02:53:02;4.20;99.90
52203;DHT22;38173;52.850;6.970;2022-11-27T02:55:29;4.20;99.90
52203;DHT22;38173;52.850;6.970;2022-11-27T02:57:56;4.20;99.90
52203;DHT22;38173;52.850;6.970;2022-11-27T03:00:23;4.10;99.90
52203;DHT22;38173;52.850;6.970;2022-11-27T03:02:51;4.10;99.90
52203;DHT22;38173;52.850;6.970;2022-11-27T03:05:17;4.20;99.90
52203;DHT22;38173;52.850;6.970;2022-11-27T03:07:52;4.20;99.90
52203;DHT22;38173;52.850;6.970;2022-11-27T03:10:19;4.20;99.90
52203;DHT22;38173;52.850;6.970;2022-11-27T03:12:48;4.20;99.90
52203;DHT22;38173;52.850;6.970;2022-11-27T03:15:14;4.20;99.90
52203;DHT22;38173;52.850;6.970;2022-11-27T03:17:45;4.20;99.90
52203;DHT22;38173;52.850;6.970;2022-11-27T03:20:14;4.20;99.90
52203;DHT22;38173;52.850;6.970;2022-11-27T03:22:41;4.20;99.90
52203;DHT22;38173;52.850;6.970;2022-11-27T03:25:07;4.20;99.90
52203;DHT22;38173;52.850;6.970;2022-11-27T03:27:34;4.20;99.90
52203;DHT22;38173;52.850;6.970;2022-11-27T03:30:05;4.20;99.90
52203;DHT22;38173;52.850;6.970;2022-11-27T03:32:31;4.20;99.90
52203;DHT22;38173;52.850;6.970;2022-11-27T03:34:58;4.30;99.90
52203;DHT22;38173;52.850;6.970;2022-11-27T03:37:24;4.30;99.90
52203;DHT22;38173;52.850;6.970;2022-11-27T03:39:49;4.30;99.90
52203;DHT22;38173;52.850;6.970;2022-11-27T03:44:52;4.30;99.90
52203;DHT22;38173;52.850;6.970;2022-11-27T03:52:26;4.30;99.90
52203;DHT22;38173;52.850;6.970;2022-11-27T03:54:58;4.30;99.90
52203;DHT22;38173;52.850;6.970;2022-11-27T03:59:57;4.30;99.90
52203;DHT22;38173;52.850;6.970;2022-11-27T04:02:27;4.40;99.90
52203;DHT22;38173;52.850;6.970;2022-11-27T04:04:55;4.30;99.90
52203;DHT22;38173;52.850;6.970;2022-11-27T04:07:22;4.30;99.90
52203;DHT22;38173;52.850;6.970;2022-11-27T04:09:48;4.30;99.90
52203;DHT22;38173;52.850;6.970;2022-11-27T04:12:13;4.30;99.90
52203;DHT22;38173;52.850;6.970;2022-11-27T04:14:39;4.20;99.90
52203;DHT22;38173;52.850;6.970;2022-11-27T04:17:04;4.30;99.90
52203;DHT22;38173;52.850;6.970;2022-11-27T04:19:30;4.20;99.90
52203;DHT22;38173;52.850;6.970;2022-11-27T04:21:55;4.30;99.90
52203;DHT22;38173;52.850;6.970;2022-11-27T04:24:21;4.30;99.90
52203;DHT22;38173;52.850;6.970;2022-11-27T04:26:47;4.20;99.90
52203;DHT22;38173;52.850;6.970;2022-11-27T04:29:12;4.20;99.90
52203;DHT22;38173;52.850;6.970;2022-11-27T04:31:38;4.20;99.90
52203;DHT22;38173;52.850;6.970;2022-11-27T04:34:04;4.20;99.90
52203;DHT22;38173;52.850;6.970;2022-11-27T04:36:30;4.20;99.90
52203;DHT22;38173;52.850;6.970;2022-11-27T04:38:55;4.20;99.90
52203;DHT22;38173;52.850;6.970;2022-11-27T04:41:21;4.20;99.90
52203;DHT22;38173;52.850;6.970;2022-11-27T04:43:46;4.30;99.90
52203;DHT22;38173;52.850;6.970;2022-11-27T04:46:12;4.20;99.90
52203;DHT22;38173;52.850;6.970;2022-11-27T04:48:38;4.20;99.90
52203;DHT22;38173;52.850;6.970;2022-11-27T04:51:03;4.20;99.90
52203;DHT22;38173;52.850;6.970;2022-11-27T04:53:29;4.30;99.90
52203;DHT22;38173;52.850;6.970;2022-11-27T04:55:54;4.20;99.90
52203;DHT22;38173;52.850;6.970;2022-11-27T04:58:20;4.20;99.90
52203;DHT22;38173;52.850;6.970;2022-11-27T05:00:46;4.20;99.90
52203;DHT22;38173;52.850;6.970;2022-11-27T05:03:11;4.20;99.90
52203;DHT22;38173;52.850;6.970;2022-11-27T05:05:44;4.20;99.90
52203;DHT22;38173;52.850;6.970;2022-11-27T05:08:10;4.20;99.90
52203;DHT22;38173;52.850;6.970;2022-11-27T05:10:35;4.20;99.90
52203;DHT22;38173;52.850;6.970;2022-11-27T05:13:01;4.20;99.90
52203;DHT22;38173;52.850;6.970;2022-11-27T05:15:26;4.20;99.90
52203;DHT22;38173;52.850;6.970;2022-11-27T05:17:52;4.30;99.90
52203;DHT22;38173;52.850;6.970;2022-11-27T05:20:18;4.30;99.90
52203;DHT22;38173;52.850;6.970;2022-11-27T05:22:43;4.30;99.90
52203;DHT22;38173;52.850;6.970;2022-11-27T05:25:10;4.30;99.90
52203;DHT22;38173;52.850;6.970;2022-11-27T05:27:36;4.30;99.90
52203;DHT22;38173;52.850;6.970;2022-11-27T05:30:02;4.30;99.90
52203;DHT22;38173;52.850;6.970;2022-11-27T05:32:27;4.20;99.90
52203;DHT22;38173;52.850;6.970;2022-11-27T05:34:53;4.20;99.90
52203;DHT22;38173;52.850;6.970;2022-11-27T05:37:18;4.20;99.90
52203;DHT22;38173;52.850;6.970;2022-11-27T05:39:44;4.20;99.90
52203;DHT22;38173;52.850;6.970;2022-11-27T05:42:10;4.20;99.90
52203;DHT22;38173;52.850;6.970;2022-11-27T05:44:38;4.10;99.90
52203;DHT22;38173;52.850;6.970;2022-11-27T05:47:04;4.10;99.90
52203;DHT22;38173;52.850;6.970;2022-11-27T05:49:30;4.10;99.90
52203;DHT22;38173;52.850;6.970;2022-11-27T05:51:55;4.10;99.90
52203;DHT22;38173;52.850;6.970;2022-11-27T05:54:21;4.10;99.90
52203;DHT22;38173;52.850;6.970;2022-11-27T05:56:49;4.10;99.90
52203;DHT22;38173;52.850;6.970;2022-11-27T05:59:15;4.10;99.90
52203;DHT22;38173;52.850;6.970;2022-11-27T06:01:41;4.10;99.90
52203;DHT22;38173;52.850;6.970;2022-11-27T06:04:07;4.00;99.90
52203;DHT22;38173;52.850;6.970;2022-11-27T06:06:32;4.10;99.90
52203;DHT22;38173;52.850;6.970;2022-11-27T06:08:58;4.00;99.90
52203;DHT22;38173;52.850;6.970;2022-11-27T06:11:24;4.00;99.90
52203;DHT22;38173;52.850;6.970;2022-11-27T06:13:50;4.10;99.90
52203;DHT22;38173;52.850;6.970;2022-11-27T06:16:19;4.00;99.90
52203;DHT22;38173;52.850;6.970;2022-11-27T06:18:52;4.00;99.90
52203;DHT22;38173;52.850;6.970;2022-11-27T06:21:18;4.00;99.90
52203;DHT22;38173;52.850;6.970;2022-11-27T06:23:44;4.00;99.90
52203;DHT22;38173;52.850;6.970;2022-11-27T06:26:15;4.00;99.90
52203;DHT22;38173;52.850;6.970;2022-11-27T06:28:41;4.00;99.90
52203;DHT22;38173;52.850;6.970;2022-11-27T06:31:08;4.10;99.90
52203;DHT22;38173;52.850;6.970;2022-11-27T06:33:33;4.10;99.90
52203;DHT22;38173;52.850;6.970;2022-11-27T06:35:59;4.00;99.90
52203;DHT22;38173;52.850;6.970;2022-11-27T06:38:25;4.00;99.90
52203;DHT22;38173;52.850;6.970;2022-11-27T06:40:51;4.10;99.90
52203;DHT22;38173;52.850;6.970;2022-11-27T06:43:16;4.10;99.90
52203;DHT22;38173;52.850;6.970;2022-11-27T06:45:42;4.10;99.90
52203;DHT22;38173;52.850;6.970;2022-11-27T06:48:07;4.10;99.90
52203;DHT22;38173;52.850;6.970;2022-11-27T06:50:33;4.10;99.90
52203;DHT22;38173;52.850;6.970;2022-11-27T06:52:58;4.10;99.90
52203;DHT22;38173;52.850;6.970;2022-11-27T06:55:24;4.10;99.90
52203;DHT22;38173;52.850;6.970;2022-11-27T06:57:50;4.10;99.90
52203;DHT22;38173;52.850;6.970;2022-11-27T07:00:16;4.10;99.90
52203;DHT22;38173;52.850;6.970;2022-11-27T07:02:42;4.10;99.90
52203;DHT22;38173;52.850;6.970;2022-11-27T07:05:07;4.10;99.90
52203;DHT22;38173;52.850;6.970;2022-11-27T07:07:33;4.10;99.90
52203;DHT22;38173;52.850;6.970;2022-11-27T07:09:58;4.20;99.90
52203;DHT22;38173;52.850;6.970;2022-11-27T07:12:24;4.10;99.90
52203;DHT22;38173;52.850;6.970;2022-11-27T07:14:50;4.20;99.90
52203;DHT22;38173;52.850;6.970;2022-11-27T07:17:15;4.10;99.90
52203;DHT22;38173;52.850;6.970;2022-11-27T07:19:41;4.20;99.90
52203;DHT22;38173;52.850;6.970;2022-11-27T07:22:07;4.10;99.90
52203;DHT22;38173;52.850;6.970;2022-11-27T07:24:32;4.10;99.90
52203;DHT22;38173;52.850;6.970;2022-11-27T07:26:58;4.10;99.90
52203;DHT22;38173;52.850;6.970;2022-11-27T07:29:23;4.10;99.90
52203;DHT22;38173;52.850;6.970;2022-11-27T07:31:49;4.10;99.90
52203;DHT22;38173;52.850;6.970;2022-11-27T07:34:15;4.10;99.90
52203;DHT22;38173;52.850;6.970;2022-11-27T07:36:41;4.10;99.90
52203;DHT22;38173;52.850;6.970;2022-11-27T07:39:07;4.10;99.90
52203;DHT22;38173;52.850;6.970;2022-11-27T07:41:32;4.10;99.90
52203;DHT22;38173;52.850;6.970;2022-11-27T07:43:58;4.10;99.90
52203;DHT22;38173;52.850;6.970;2022-11-27T07:46:23;4.10;99.90
52203;DHT22;38173;52.850;6.970;2022-11-27T07:48:50;4.10;99.90
52203;DHT22;38173;52.850;6.970;2022-11-27T07:51:16;4.10;99.90
52203;DHT22;38173;52.850;6.970;2022-11-27T07:53:42;4.20;99.90
52203;DHT22;38173;52.850;6.970;2022-11-27T07:56:09;4.20;99.90
52203;DHT22;38173;52.850;6.970;2022-11-27T07:58:35;4.20;99.90
52203;DHT22;38173;52.850;6.970;2022-11-27T08:01:04;4.20;99.90
52203;DHT22;38173;52.850;6.970;2022-11-27T08:03:30;4.20;99.90
52203;DHT22;38173;52.850;6.970;2022-11-27T08:05:55;4.20;99.90
52203;DHT22;38173;52.850;6.970;2022-11-27T08:08:21;4.20;99.90
52203;DHT22;38173;52.850;6.970;2022-11-27T08:10:46;4.20;99.90
52203;DHT22;38173;52.850;6.970;2022-11-27T08:13:12;4.20;99.90
52203;DHT22;38173;52.850;6.970;2022-11-27T08:15:38;4.20;99.90
52203;DHT22;38173;52.850;6.970;2022-11-27T08:18:04;4.20;99.90
52203;DHT22;38173;52.850;6.970;2022-11-27T08:20:30;4.30;99.90
52203;DHT22;38173;52.850;6.970;2022-11-27T08:22:55;4.30;99.90
52203;DHT22;38173;52.850;6.970;2022-11-27T08:25:21;4.30;99.90
52203;DHT22;38173;52.850;6.970;2022-11-27T08:27:47;4.30;99.90
52203;DHT22;38173;52.850;6.970;2022-11-27T08:30:13;4.30;99.90
52203;DHT22;38173;52.850;6.970;2022-11-27T08:32:39;4.40;99.90
52203;DHT22;38173;52.850;6.970;2022-11-27T08:35:05;4.40;99.90
52203;DHT22;38173;52.850;6.970;2022-11-27T08:37:31;4.40;99.90
52203;DHT22;38173;52.850;6.970;2022-11-27T08:39:57;4.50;99.90
52203;DHT22;38173;52.850;6.970;2022-11-27T08:42:22;4.50;99.90
52203;DHT22;38173;52.850;6.970;2022-11-27T08:44:48;4.50;99.90
52203;DHT22;38173;52.850;6.970;2022-11-27T08:47:13;4.50;99.90
52203;DHT22;38173;52.850;6.970;2022-11-27T08:49:42;4.50;99.90
52203;DHT22;38173;52.850;6.970;2022-11-27T08:52:17;4.50;99.90
52203;DHT22;38173;52.850;6.970;2022-11-27T08:54:42;4.50;99.90
52203;DHT22;38173;52.850;6.970;2022-11-27T08:57:08;4.60;99.90
52203;DHT22;38173;52.850;6.970;2022-11-27T08:59:33;4.60;99.90
52203;DHT22;38173;52.850;6.970;2022-11-27T09:01:59;4.60;99.90
52203;DHT22;38173;52.850;6.970;2022-11-27T09:04:24;4.70;99.90
52203;DHT22;38173;52.850;6.970;2022-11-27T09:06:50;4.70;99.90
52203;DHT22;38173;52.850;6.970;2022-11-27T09:09:16;4.70;99.90
52203;DHT22;38173;52.850;6.970;2022-11-27T09:11:41;4.70;99.90
52203;DHT22;38173;52.850;6.970;2022-11-27T09:14:07;4.80;99.90
52203;DHT22;38173;52.850;6.970;2022-11-27T09:16:33;4.70;99.90
52203;DHT22;38173;52.850;6.970;2022-11-27T09:18:59;4.80;99.90
52203;DHT22;38173;52.850;6.970;2022-11-27T09:21:25;4.80;99.90
52203;DHT22;38173;52.850;6.970;2022-11-27T09:23:52;4.80;99.90
52203;DHT22;38173;52.850;6.970;2022-11-27T09:26:18;4.80;99.90
52203;DHT22;38173;52.850;6.970;2022-11-27T09:28:44;4.80;99.90
52203;DHT22;38173;52.850;6.970;2022-11-27T09:31:14;4.80;99.90
52203;DHT22;38173;52.850;6.970;2022-11-27T09:33:40;4.80;99.90
52203;DHT22;38173;52.850;6.970;2022-11-27T09:36:09;4.80;99.90
52203;DHT22;38173;52.850;6.970;2022-11-27T09:38:35;4.80;99.90
52203;DHT22;38173;52.850;6.970;2022-11-27T09:41:02;4.80;99.90
52203;DHT22;38173;52.850;6.970;2022-11-27T09:43:30;4.80;99.90
52203;DHT22;38173;52.850;6.970;2022-11-27T09:46:00;4.80;99.90
52203;DHT22;38173;52.850;6.970;2022-11-27T09:48:36;4.80;99.90
52203;DHT22;38173;52.850;6.970;2022-11-27T09:51:08;4.80;99.90
52203;DHT22;38173;52.850;6.970;2022-11-27T09:53:46;4.80;99.90
52203;DHT22;38173;52.850;6.970;2022-11-27T09:56:14;4.70;99.90
52203;DHT22;38173;52.850;6.970;2022-11-27T09:58:42;4.80;99.90
52203;DHT22;38173;52.850;6.970;2022-11-27T10:01:09;4.80;99.90
52203;DHT22;38173;52.850;6.970;2022-11-27T10:03:35;4.80;99.90
52203;DHT22;38173;52.850;6.970;2022-11-27T10:08:30;4.80;99.90
52203;DHT22;38173;52.850;6.970;2022-11-27T10:11:08;4.80;99.90
52203;DHT22;38173;52.850;6.970;2022-11-27T10:13:45;4.80;99.90
52203;DHT22;38173;52.850;6.970;2022-11-27T10:16:17;4.80;99.90
52203;DHT22;38173;52.850;6.970;2022-11-27T10:18:45;4.80;99.90
52203;DHT22;38173;52.850;6.970;2022-11-27T10:21:26;4.80;99.90
52203;DHT22;38173;52.850;6.970;2022-11-27T10:24:20;4.80;99.90
52203;DHT22;38173;52.850;6.970;2022-11-27T10:26:48;4.80;99.90
52203;DHT22;38173;52.850;6.970;2022-11-27T10:29:26;4.80;99.90
52203;DHT22;38173;52.850;6.970;2022-11-27T10:31:55;4.80;99.90
52203;DHT22;38173;52.850;6.970;2022-11-27T10:36:55;4.80;99.90
52203;DHT22;38173;52.850;6.970;2022-11-27T10:41:53;4.80;99.90
52203;DHT22;38173;52.850;6.970;2022-11-27T10:46:47;4.90;99.90
52203;DHT22;38173;52.850;6.970;2022-11-27T10:49:13;4.90;99.90
52203;DHT22;38173;52.850;6.970;2022-11-27T10:51:39;4.90;99.90
52203;DHT22;38173;52.850;6.970;2022-11-27T10:54:05;4.90;99.90
52203;DHT22;38173;52.850;6.970;2022-11-27T11:01:46;4.90;99.90
52203;DHT22;38173;52.850;6.970;2022-11-27T11:04:13;5.00;99.90
52203;DHT22;38173;52.850;6.970;2022-11-27T11:06:41;5.00;99.90
52203;DHT22;38173;52.850;6.970;2022-11-27T11:09:14;5.00;99.90
52203;DHT22;38173;52.850;6.970;2022-11-27T11:11:40;5.00;99.90
52203;DHT22;38173;52.850;6.970;2022-11-27T11:16:41;5.00;99.90
52203;DHT22;38173;52.850;6.970;2022-11-27T11:22:16;5.10;99.90
52203;DHT22;38173;52.850;6.970;2022-11-27T11:24:48;5.10;99.90
52203;DHT22;38173;52.850;6.970;2022-11-27T11:27:18;5.10;99.90
52203;DHT22;38173;52.850;6.970;2022-11-27T11:29:54;5.20;99.90
52203;DHT22;38173;52.850;6.970;2022-11-27T11:34:50;5.20;99.90
52203;DHT22;38173;52.850;6.970;2022-11-27T11:37:22;5.20;99.90
52203;DHT22;38173;52.850;6.970;2022-11-27T11:42:26;5.20;99.90
52203;DHT22;38173;52.850;6.970;2022-11-27T11:47:50;5.20;99.90
52203;DHT22;38173;52.850;6.970;2022-11-27T11:50:28;5.20;99.90
52203;DHT22;38173;52.850;6.970;2022-11-27T11:55:28;5.30;99.90
52203;DHT22;38173;52.850;6.970;2022-11-27T12:00:22;5.30;99.90
52203;DHT22;38173;52.850;6.970;2022-11-27T12:02:52;5.40;99.90
52203;DHT22;38173;52.850;6.970;2022-11-27T12:05:25;5.40;99.90
52203;DHT22;38173;52.850;6.970;2022-11-27T12:13:25;5.40;99.90
52203;DHT22;38173;52.850;6.970;2022-11-27T12:16:35;5.40;99.90
52203;DHT22;38173;52.850;6.970;2022-11-27T12:21:14;5.40;99.90
52203;DHT22;38173;52.850;6.970;2022-11-27T12:31:36;5.50;99.90
52203;DHT22;38173;52.850;6.970;2022-11-27T12:34:05;5.50;99.90
52203;DHT22;38173;52.850;6.970;2022-11-27T12:39:22;5.50;99.90
52203;DHT22;38173;52.850;6.970;2022-11-27T12:42:31;5.50;99.90
52203;DHT22;38173;52.850;6.970;2022-11-27T12:47:15;5.50;99.90
52203;DHT22;38173;52.850;6.970;2022-11-27T12:49:45;5.60;99.90
52203;DHT22;38173;52.850;6.970;2022-11-27T12:52:17;5.60;99.90
52203;DHT22;38173;52.850;6.970;2022-11-27T12:57:15;5.60;99.90
52203;DHT22;38173;52.850;6.970;2022-11-27T13:02:19;5.60;99.90
52203;DHT22;38173;52.850;6.970;2022-11-27T13:10:02;5.60;99.90
52203;DHT22;38173;52.850;6.970;2022-11-27T13:12:30;5.60;99.90
52203;DHT22;38173;52.850;6.970;2022-11-27T13:14:59;5.60;99.90
52203;DHT22;38173;52.850;6.970;2022-11-27T13:17:28;5.60;99.90
52203;DHT22;38173;52.850;6.970;2022-11-27T13:19:56;5.60;99.90
52203;DHT22;38173;52.850;6.970;2022-11-27T13:22:26;5.70;99.90
52203;DHT22;38173;52.850;6.970;2022-11-27T13:24:53;5.70;99.90
52203;DHT22;38173;52.850;6.970;2022-11-27T13:27:20;5.70;99.90
52203;DHT22;38173;52.850;6.970;2022-11-27T13:29:48;5.70;99.90
52203;DHT22;38173;52.850;6.970;2022-11-27T13:32:22;5.70;99.90
52203;DHT22;38173;52.850;6.970;2022-11-27T13:34:48;5.70;99.90
52203;DHT22;38173;52.850;6.970;2022-11-27T13:39:49;5.70;99.90
52203;DHT22;38173;52.850;6.970;2022-11-27T13:42:22;5.70;99.90
52203;DHT22;38173;52.850;6.970;2022-11-27T13:44:57;5.70;99.90
52203;DHT22;38173;52.850;6.970;2022-11-27T13:47:24;5.70;99.90
52203;DHT22;38173;52.850;6.970;2022-11-27T13:52:28;5.70;99.90
52203;DHT22;38173;52.850;6.970;2022-11-27T13:57:20;5.70;99.90
52203;DHT22;38173;52.850;6.970;2022-11-27T13:59:54;5.60;99.90
52203;DHT22;38173;52.850;6.970;2022-11-27T14:02:19;5.60;99.90
52203;DHT22;38173;52.850;6.970;2022-11-27T14:04:50;5.60;99.90
52203;DHT22;38173;52.850;6.970;2022-11-27T14:07:15;5.60;99.90
52203;DHT22;38173;52.850;6.970;2022-11-27T14:09:48;5.70;99.90
52203;DHT22;38173;52.850;6.970;2022-11-27T14:12:17;5.70;99.90
52203;DHT22;38173;52.850;6.970;2022-11-27T14:14:44;5.70;99.90
52203;DHT22;38173;52.850;6.970;2022-11-27T14:18:02;5.60;99.90
52203;DHT22;38173;52.850;6.970;2022-11-27T14:27:41;5.60;99.90
52203;DHT22;38173;52.850;6.970;2022-11-27T14:30:30;5.70;99.90
52203;DHT22;38173;52.850;6.970;2022-11-27T14:32:53;5.60;99.90
52203;DHT22;38173;52.850;6.970;2022-11-27T14:35:19;5.60;99.90
52203;DHT22;38173;52.850;6.970;2022-11-27T14:37:45;5.60;99.90
52203;DHT22;38173;52.850;6.970;2022-11-27T14:40:12;5.60;99.90
52203;DHT22;38173;52.850;6.970;2022-11-27T14:42:38;5.60;99.90
52203;DHT22;38173;52.850;6.970;2022-11-27T14:45:05;5.60;99.90
52203;DHT22;38173;52.850;6.970;2022-11-27T14:47:31;5.60;99.90
52203;DHT22;38173;52.850;6.970;2022-11-27T14:49:57;5.60;99.90
52203;DHT22;38173;52.850;6.970;2022-11-27T14:52:23;5.60;99.90
52203;DHT22;38173;52.850;6.970;2022-11-27T14:54:49;5.60;99.90
52203;DHT22;38173;52.850;6.970;2022-11-27T14:57:25;5.60;99.90
52203;DHT22;38173;52.850;6.970;2022-11-27T15:02:51;5.60;99.90
52203;DHT22;38173;52.850;6.970;2022-11-27T15:05:27;5.60;99.90
52203;DHT22;38173;52.850;6.970;2022-11-27T15:07:54;5.60;99.90
52203;DHT22;38173;52.850;6.970;2022-11-27T15:10:27;5.60;99.90
52203;DHT22;38173;52.850;6.970;2022-11-27T15:12:53;5.60;99.90
52203;DHT22;38173;52.850;6.970;2022-11-27T15:17:46;5.60;99.90
52203;DHT22;38173;52.850;6.970;2022-11-27T15:20:14;5.60;99.90
52203;DHT22;38173;52.850;6.970;2022-11-27T15:22:48;5.60;99.90
52203;DHT22;38173;52.850;6.970;2022-11-27T15:25:23;5.60;99.90
52203;DHT22;38173;52.850;6.970;2022-11-27T15:27:52;5.60;99.90
52203;DHT22;38173;52.850;6.970;2022-11-27T15:30:20;5.70;99.90
52203;DHT22;38173;52.850;6.970;2022-11-27T15:32:47;5.70;99.90
52203;DHT22;38173;52.850;6.970;2022-11-27T15:35:34;5.70;99.90
52203;DHT22;38173;52.850;6.970;2022-11-27T15:38:07;5.60;99.90
52203;DHT22;38173;52.850;6.970;2022-11-27T15:40:34;5.70;99.90
52203;DHT22;38173;52.850;6.970;2022-11-27T15:43:00;5.60;99.90
52203;DHT22;38173;52.850;6.970;2022-11-27T15:45:29;5.60;99.90
52203;DHT22;38173;52.850;6.970;2022-11-27T15:47:56;5.60;99.90
52203;DHT22;38173;52.850;6.970;2022-11-27T15:50:23;5.60;99.90
52203;DHT22;38173;52.850;6.970;2022-11-27T15:52:48;5.70;99.90
52203;DHT22;38173;52.850;6.970;2022-11-27T15:55:15;5.70;99.90
52203;DHT22;38173;52.850;6.970;2022-11-27T15:57:41;5.60;99.90
52203;DHT22;38173;52.850;6.970;2022-11-27T16:00:07;5.60;99.90
52203;DHT22;38173;52.850;6.970;2022-11-27T16:02:36;5.60;99.90
52203;DHT22;38173;52.850;6.970;2022-11-27T16:05:03;5.60;99.90
52203;DHT22;38173;52.850;6.970;2022-11-27T16:07:29;5.60;99.90
52203;DHT22;38173;52.850;6.970;2022-11-27T16:09:55;5.60;99.90
52203;DHT22;38173;52.850;6.970;2022-11-27T16:12:20;5.60;99.90
52203;DHT22;38173;52.850;6.970;2022-11-27T16:14:46;5.60;99.90
52203;DHT22;38173;52.850;6.970;2022-11-27T16:17:11;5.60;99.90
52203;DHT22;38173;52.850;6.970;2022-11-27T16:19:37;5.60;99.90
52203;DHT22;38173;52.850;6.970;2022-11-27T16:22:02;5.60;99.90
52203;DHT22;38173;52.850;6.970;2022-11-27T16:24:28;5.60;99.90
52203;DHT22;38173;52.850;6.970;2022-11-27T16:26:54;5.60;99.90
52203;DHT22;38173;52.850;6.970;2022-11-27T16:29:19;5.60;99.90
52203;DHT22;38173;52.850;6.970;2022-11-27T16:31:45;5.60;99.90
52203;DHT22;38173;52.850;6.970;2022-11-27T16:34:12;5.60;99.90
52203;DHT22;38173;52.850;6.970;2022-11-27T16:36:39;5.60;99.90
52203;DHT22;38173;52.850;6.970;2022-11-27T16:39:05;5.60;99.90
52203;DHT22;38173;52.850;6.970;2022-11-27T16:41:30;5.60;99.90
52203;DHT22;38173;52.850;6.970;2022-11-27T16:43:56;5.60;99.90
52203;DHT22;38173;52.850;6.970;2022-11-27T16:46:28;5.60;99.90
52203;DHT22;38173;52.850;6.970;2022-11-27T16:48:55;5.60;99.90
52203;DHT22;38173;52.850;6.970;2022-11-27T16:51:25;5.60;99.90
52203;DHT22;38173;52.850;6.970;2022-11-27T16:53:51;5.60;99.90
52203;DHT22;38173;52.850;6.970;2022-11-27T16:56:18;5.60;99.90
52203;DHT22;38173;52.850;6.970;2022-11-27T16:58:45;5.60;99.90
52203;DHT22;38173;52.850;6.970;2022-11-27T17:01:12;5.60;99.90
52203;DHT22;38173;52.850;6.970;2022-11-27T17:03:39;5.60;99.90
52203;DHT22;38173;52.850;6.970;2022-11-27T17:06:05;5.60;99.90
52203;DHT22;38173;52.850;6.970;2022-11-27T17:08:32;5.60;99.90
52203;DHT22;38173;52.850;6.970;2022-11-27T17:10:58;5.60;99.90
52203;DHT22;38173;52.850;6.970;2022-11-27T17:13:30;5.60;99.90
52203;DHT22;38173;52.850;6.970;2022-11-27T17:15:59;5.60;99.90
52203;DHT22;38173;52.850;6.970;2022-11-27T17:18:24;5.60;99.90
52203;DHT22;38173;52.850;6.970;2022-11-27T17:20:50;5.60;99.90
52203;DHT22;38173;52.850;6.970;2022-11-27T17:23:17;5.60;99.90
52203;DHT22;38173;52.850;6.970;2022-11-27T17:25:42;5.60;99.90
52203;DHT22;38173;52.850;6.970;2022-11-27T17:28:08;5.70;99.90
52203;DHT22;38173;52.850;6.970;2022-11-27T17:30:36;5.70;99.90
52203;DHT22;38173;52.850;6.970;2022-11-27T17:33:01;5.70;99.90
52203;DHT22;38173;52.850;6.970;2022-11-27T17:35:27;5.70;99.90
52203;DHT22;38173;52.850;6.970;2022-11-27T17:37:54;5.70;99.90
52203;DHT22;38173;52.850;6.970;2022-11-27T17:40:20;5.70;99.90
52203;DHT22;38173;52.850;6.970;2022-11-27T17:42:46;5.70;99.90
52203;DHT22;38173;52.850;6.970;2022-11-27T17:45:12;5.60;99.90
52203;DHT22;38173;52.850;6.970;2022-11-27T17:47:38;5.70;99.90
52203;DHT22;38173;52.850;6.970;2022-11-27T17:50:04;5.70;99.90
52203;DHT22;38173;52.850;6.970;2022-11-27T17:52:30;5.70;99.90